Weather History for KEFT - January, 2014

Change the Weather History Date:

Sunday, January 26, 2014

  Actual Average Record
Temperature  
Mean Temperature 14 °F -  
Max Temperature 27 °F 0 °F 51 °F (2002)
Min Temperature 0 °F - 0 °F (2009)
Degree Days  
Heating Degree Days 51    
Moisture  
Dew Point 10 °F    
Average Humidity 86    
Maximum Humidity 100    
Minimum Humidity 58    
Precipitation  
Precipitation 0.04 in - - ()
Sea Level Pressure  
Sea Level Pressure 29.49 in    
Wind  
Wind Speed 15 mph (WSW)    
Max Wind Speed 40 mph    
Max Gust Speed 47 mph    
Visibility 5 miles    
Events Snow    
Averages and records for this station are not official NWS values.
T = Trace of Precipitation, MM = Missing Value Source: NWS Daily Summary

Daily Weather History Graph

Daily Weather History Graph

Search for Another Location

Airport or City:

Trip Planner

Search our weather history database for the weather conditions in past years. The results will help you decide how hot, cold, wet, or windy it might be!

Date:

Astronomy

Jan. 26, 2014 Rise Set
Actual Time 7:18 AM CST 5:04 PM CST
Civil Twilight 6:47 AM CST 5:34 PM CST
Nautical Twilight 6:13 AM CST 6:08 PM CST
Astronomical Twilight 5:40 AM CST 6:41 PM CST
Moon 2:56 AM CST (1/26) 12:52 PM CST (1/26)
Length of Visible Light 10h 46m
Length of Day
9h 45m
Waning Crescent, 23% of the Moon is Illuminated
Jan 26
Waning Crescent
Jan 30
New
Feb 6
First Quarter
Feb 14
Full
Feb 22
Last Quarter

Hourly Weather History & Observations

Time (CST) Temp. Windchill Dew Point Humidity Pressure Visibility Wind Dir Wind Speed Gust Speed Precip Events Conditions
12:15 AM 5.9 °F -7.0 °F -3.3 °F 66% 29.65 in 10.0 mi South 8.1 mph - N/A   Overcast
12:35 AM 5.9 °F -5.8 °F -3.1 °F 67% 29.63 in 10.0 mi South 6.9 mph - N/A   Overcast
12:55 AM 5.9 °F -7.0 °F -3.1 °F 67% 29.61 in 10.0 mi South 8.1 mph - N/A   Overcast
1:15 AM 5.7 °F -9.9 °F -0.6 °F 75% 29.59 in 3.0 mi South 11.5 mph - N/A Snow Light Snow
1:35 AM 5.9 °F -8.9 °F 5.0 °F 96% 29.61 in 1.0 mi South 10.4 mph - N/A Snow Snow
1:55 AM 5.7 °F -9.9 °F 5.7 °F 100% 29.60 in 0.5 mi South 11.5 mph - 0.01 in Snow Snow
2:15 AM 5.9 °F -7.0 °F 5.9 °F 100% 29.59 in 1.0 mi South 8.1 mph - 0.01 in Snow Snow
2:35 AM 5.9 °F -4.5 °F 5.9 °F 100% 29.58 in 1.8 mi SSE 5.8 mph - 0.01 in Snow Light Snow
2:55 AM 5.9 °F -7.0 °F 5.9 °F 100% 29.56 in 1.2 mi SSE 8.1 mph - 0.02 in Snow Light Snow
3:15 AM 6.3 °F -7.5 °F 6.3 °F 100% 29.51 in 1.5 mi SE 9.2 mph - 0.01 in Snow Light Snow
3:35 AM 6.3 °F -6.5 °F 6.3 °F 100% 29.49 in 1.5 mi SE 8.1 mph - 0.01 in Snow Light Snow
3:55 AM 6.3 °F -8.4 °F 6.3 °F 100% 29.49 in 1.2 mi SE 10.4 mph - 0.01 in Snow Light Snow
4:15 AM 6.4 °F -9.0 °F 6.4 °F 100% 29.47 in 2.0 mi SSE 11.5 mph - N/A Snow Light Snow
4:35 AM 6.4 °F -9.8 °F 6.4 °F 100% 29.46 in 5.0 mi SE 12.7 mph - N/A Snow Light Snow
4:55 AM 6.8 °F -9.3 °F 6.8 °F 100% 29.43 in 10.0 mi SE 12.7 mph - N/A Snow Light Snow
5:15 AM 7.5 °F -7.7 °F 7.5 °F 100% 29.43 in 10.0 mi SE 11.5 mph - N/A Snow Light Snow
5:35 AM 7.7 °F -5.8 °F 7.7 °F 100% 29.42 in 10.0 mi SE 9.2 mph 16.1 mph N/A Snow Light Snow
5:55 AM 8.1 °F -7.0 °F 8.1 °F 100% 29.40 in 10.0 mi SE 11.5 mph 16.1 mph N/A Snow Light Snow
6:15 AM 8.4 °F -6.5 °F 8.4 °F 100% 29.41 in 10.0 mi SE 11.5 mph - N/A Snow Light Snow
6:35 AM 9.0 °F -7.3 °F 9.0 °F 100% 29.39 in 10.0 mi SSE 13.8 mph - N/A Snow Light Snow
6:55 AM 9.1 °F -7.0 °F 9.1 °F 100% 29.37 in 10.0 mi SE 13.8 mph - N/A Snow Light Snow
7:15 AM 9.3 °F -7.4 °F 9.3 °F 100% 29.37 in 10.0 mi SE 15.0 mph - N/A Snow Light Snow
7:35 AM 9.5 °F -3.5 °F 9.5 °F 100% 29.38 in 10.0 mi SE 9.2 mph - N/A Snow Light Snow
7:55 AM 10.2 °F -2.7 °F 10.2 °F 100% 29.36 in 10.0 mi SSE 9.2 mph - N/A Snow Light Snow
8:20 AM 11.3 °F -0.4 °F 11.3 °F 100% 29.36 in 10.0 mi South 8.1 mph - N/A   Overcast
8:35 AM 11.3 °F -1.3 °F 11.3 °F 100% 29.36 in 10.0 mi SSE 9.2 mph - N/A   Overcast
8:55 AM 12.0 °F 0.5 °F 12.0 °F 100% 29.35 in 10.0 mi South 8.1 mph - N/A   Overcast
9:15 AM 12.9 °F 5.2 °F 12.9 °F 100% 29.35 in 10.0 mi South 4.6 mph - N/A   Overcast
9:35 AM 14.7 °F 3.8 °F 14.5 °F 99% 29.36 in 10.0 mi SW 8.1 mph - N/A   Overcast
9:55 AM 16.7 °F 4.5 °F 15.6 °F 96% 29.37 in 10.0 mi WSW 10.4 mph - N/A   Overcast
10:15 AM 18.0 °F 3.1 °F 16.7 °F 95% 29.38 in 10.0 mi West 16.1 mph 19.6 mph N/A   Overcast
10:35 AM 18.9 °F 4.8 °F 17.4 °F 94% 29.37 in 10.0 mi West 15.0 mph 21.9 mph N/A   Overcast
10:55 AM 20.5 °F 4.6 °F 18.5 °F 92% 29.36 in 4.0 mi West 20.7 mph 25.3 mph N/A   Overcast
11:15 AM 22.6 °F 7.9 °F 19.6 °F 88% 29.36 in 4.0 mi West 19.6 mph 26.5 mph N/A   Scattered Clouds
11:35 AM 24.4 °F 10.6 °F 20.1 °F 84% 29.36 in 7.0 mi West 18.4 mph 24.2 mph N/A   Clear
11:55 AM 24.4 °F 8.8 °F 22.1 °F 91% 29.36 in 2.5 mi West 24.2 mph 27.6 mph N/A   Scattered Clouds
12:15 PM 25.5 °F 10.6 °F 22.8 °F 89% 29.36 in 4.0 mi West 23.0 mph 28.8 mph N/A   Clear
12:35 PM 26.6 °F 12.4 °F 22.5 °F 84% 29.36 in 7.0 mi West 21.9 mph 27.6 mph N/A   Scattered Clouds
12:55 PM 27.3 °F 13.0 °F 21.2 °F 78% 29.36 in 2.0 mi West 23.0 mph 31.1 mph N/A   Haze
1:15 PM 27.1 °F 12.4 °F 20.7 °F 77% 29.36 in 1.2 mi West 24.2 mph 39.1 mph N/A   Haze
1:35 PM 27.3 °F 11.8 °F 20.1 °F 74% 29.36 in 2.0 mi West 27.6 mph 34.5 mph N/A   Haze
1:55 PM 26.6 °F 11.1 °F 20.1 °F 77% 29.36 in 1.5 mi West 26.5 mph 36.8 mph N/A   Haze
2:15 PM 26.2 °F 9.6 °F 20.3 °F 78% 29.38 in 2.5 mi West 31.1 mph 38.0 mph N/A   Haze
2:35 PM 24.8 °F 9.3 °F 19.0 °F 79% 29.39 in 3.0 mi West 24.2 mph 36.8 mph N/A   Haze
2:55 PM 24.3 °F 7.4 °F 19.8 °F 83% 29.42 in 2.5 mi West 28.8 mph 38.0 mph N/A   Overcast
3:15 PM 23.9 °F 7.8 °F 19.4 °F 83% 29.42 in 3.0 mi West 25.3 mph 32.2 mph N/A   Haze
3:35 PM 23.9 °F 9.1 °F 18.5 °F 80% 29.41 in 10.0 mi West 20.7 mph 28.8 mph N/A   Overcast
3:55 PM 23.9 °F 6.6 °F 20.1 °F 85% 29.41 in 5.0 mi West 29.9 mph 38.0 mph N/A   Overcast
4:15 PM 23.5 °F 7.3 °F 19.2 °F 84% 29.43 in 2.5 mi West 25.3 mph 34.5 mph N/A Snow Light Snow
4:35 PM 22.8 °F 6.7 °F 22.5 °F 99% 29.43 in 1.0 mi West 24.2 mph 33.4 mph N/A Snow Light Snow
4:55 PM 21.9 °F 6.5 °F 21.9 °F 100% 29.44 in 1.2 mi West 20.7 mph 28.8 mph N/A Snow Light Snow
5:15 PM 21.2 °F 5.6 °F 21.2 °F 100% 29.45 in 0.8 mi West 20.7 mph 32.2 mph N/A Snow Light Snow
5:35 PM 21.2 °F 6.4 °F 21.2 °F 100% 29.45 in 1.2 mi West 18.4 mph 26.5 mph N/A Snow Light Snow
5:55 PM 20.7 °F 3.5 °F 20.7 °F 100% 29.47 in 1.0 mi West 25.3 mph 36.8 mph N/A Snow Light Snow
6:15 PM 20.3 °F 3.3 °F 20.3 °F 100% 29.49 in 1.0 mi West 24.2 mph 34.5 mph N/A Snow Light Snow
6:35 PM 18.3 °F -0.0 °F 17.8 °F 98% 29.53 in 0.5 mi WNW 26.5 mph 44.9 mph N/A Snow Light Snow
6:55 PM 16.3 °F -1.6 °F 4.5 °F 60% 29.55 in 3.0 mi WNW 23.0 mph 35.7 mph N/A   Haze
7:15 PM 15.3 °F -5.1 °F 5.2 °F 64% 29.56 in 7.0 mi West 29.9 mph 40.3 mph N/A   Overcast
7:35 PM 13.3 °F -7.5 °F 1.0 °F 58% 29.56 in 5.0 mi West 28.8 mph 39.1 mph N/A   Haze
7:55 PM 11.7 °F -9.0 °F 0.1 °F 60% 29.57 in 5.0 mi West 26.5 mph 35.7 mph N/A   Haze
8:15 PM 9.9 °F -11.0 °F -0.4 °F 63% 29.58 in 5.0 mi West 25.3 mph 34.5 mph N/A   Haze
8:35 PM 8.8 °F -16.6 °F -1.5 °F 63% 29.61 in 3.0 mi West 40.3 mph 47.2 mph N/A   Haze
8:55 PM 7.0 °F -14.0 °F -1.7 °F 68% 29.64 in 3.0 mi West 23.0 mph 42.6 mph N/A   Haze
9:15 PM 5.5 °F -17.2 °F -2.4 °F 70% 29.66 in 4.0 mi WNW 26.5 mph 42.6 mph N/A   Haze
9:35 PM 4.8 °F -18.2 °F -1.3 °F 76% 29.68 in 1.5 mi WNW 26.5 mph 38.0 mph N/A Snow Light Snow
9:55 PM 4.6 °F -18.4 °F -1.3 °F 76% 29.71 in 2.0 mi WNW 26.5 mph 38.0 mph N/A   Haze
10:15 PM 3.6 °F -20.2 °F -4.2 °F 70% 29.73 in 3.0 mi WNW 27.6 mph 39.1 mph N/A   Haze
10:35 PM 2.8 °F -19.5 °F -6.0 °F 67% 29.75 in 7.0 mi WNW 23.0 mph 32.2 mph N/A   Scattered Clouds
10:55 PM 2.3 °F -20.2 °F -7.8 °F 63% 29.78 in 7.0 mi WNW 23.0 mph 35.7 mph N/A   Clear
11:15 PM 1.4 °F -21.4 °F -7.8 °F 65% 29.81 in 10.0 mi WNW 23.0 mph 29.9 mph N/A   Clear
11:35 PM 1.0 °F -20.4 °F -7.8 °F 66% 29.83 in 10.0 mi WNW 19.6 mph 34.5 mph N/A   Clear
11:55 PM 0.5 °F -20.0 °F -7.8 °F 68% 29.84 in 10.0 mi WNW 17.3 mph 28.8 mph N/A   Clear